»·PEaware :: N915MM KLAX-KSAN

N915MM :: KLAX-KSAN

FLIGHT INFORMATION

Flight Status: Arrived
Operator: Privately registered:
United States
More flights under this callsign
Pilot: Tyler S. (27221)
Aircraft: SOCATA TBM-900
(TBM9)
More flights by this aircraft type
Origin: KLAX Los Angeles Intl
United States
Destination: KSAN San Diego Intl-Lindbergh
United States
More flights between these airports :: More routes between these airports
Route:
File this flight plan on PilotEdge
Remarks: CAT-11
Altitude:
(Current/Filed)
5,500ft
Speed:
(Current/Filed)
230kts
Departed: 08-Jan-20 03:38 PM
Arrived: 08-Jan-20 04:16 PM
Distance/Time
Traveled:
95nm/0:38
Distance/Time
To Go:
Arrived

Flight Plot

Page will automatically refresh every two minutes.


Map Options




Map Legend


Flown Route
Filed Route
Departure Airport
Arrival Airport
Navaid (VOR, NDB)
Fix

Horizontal Profiles

Position Reports

Time Latitude Longitude Heading Altitude Ground
Speed
08-Jan-20 14:58 33.933591 -118.399385 86 128ft 0kts
08-Jan-20 14:59 33.933591 -118.399385 86 128ft 0kts
08-Jan-20 15:00 33.933591 -118.399385 86 128ft 0kts
08-Jan-20 15:01 33.933591 -118.399385 86 128ft 0kts
08-Jan-20 15:02 33.933591 -118.399385 86 128ft 0kts
08-Jan-20 15:03 33.933591 -118.399385 86 128ft 0kts
08-Jan-20 15:03 33.933591 -118.399385 86 128ft 0kts
08-Jan-20 15:05 33.933591 -118.399385 86 128ft 0kts
08-Jan-20 15:06 33.933591 -118.399385 86 128ft 0kts
08-Jan-20 15:06 33.933591 -118.399385 86 128ft 0kts
08-Jan-20 15:08 33.933591 -118.399385 86 128ft 0kts
08-Jan-20 15:15 33.933590 -118.399384 86 128ft 0kts
08-Jan-20 15:16 33.933590 -118.399384 86 128ft 0kts
08-Jan-20 15:17 33.933590 -118.399384 86 128ft 0kts
08-Jan-20 15:18 33.933590 -118.399384 86 128ft 0kts
08-Jan-20 15:19 33.933590 -118.399383 86 128ft 0kts
08-Jan-20 15:20 33.933590 -118.399383 86 128ft 0kts
08-Jan-20 15:21 33.933590 -118.399383 86 128ft 0kts
08-Jan-20 15:22 33.933590 -118.399383 86 128ft 0kts
08-Jan-20 15:23 33.933590 -118.399383 86 128ft 0kts
08-Jan-20 15:24 33.933590 -118.399383 86 128ft 0kts
08-Jan-20 15:25 33.933590 -118.399383 86 128ft 0kts
08-Jan-20 15:26 33.933590 -118.399383 86 128ft 0kts
08-Jan-20 15:27 33.933590 -118.399383 86 128ft 0kts
08-Jan-20 15:28 33.933590 -118.399383 86 128ft 0kts
08-Jan-20 15:29 33.933590 -118.399383 86 128ft 0kts
08-Jan-20 15:30 33.933590 -118.399383 86 128ft 0kts
08-Jan-20 15:31 33.933964 -118.398178 6 128ft 10kts
08-Jan-20 15:32 33.934899 -118.394727 82 128ft 17kts
08-Jan-20 15:33 33.935580 -118.388124 83 128ft 22kts
08-Jan-20 15:34 33.936061 -118.383379 78 128ft 11kts
08-Jan-20 15:35 33.936402 -118.382884 23 128ft 0kts
08-Jan-20 15:36 33.936814 -118.382847 353 128ft 11kts
08-Jan-20 15:37 33.935841 -118.399114 265 359ft 106kts
08-Jan-20 15:38 33.933566 -118.442196 267 2105ft 139kts
08-Jan-20 15:39 33.897829 -118.456589 172 3031ft 193kts
08-Jan-20 15:40 33.843108 -118.447605 172 3001ft 200kts
08-Jan-20 15:41 33.795028 -118.416336 142 3001ft 201kts
08-Jan-20 15:42 33.750695 -118.375127 141 3000ft 201kts
08-Jan-20 15:43 33.706343 -118.333895 141 2999ft 201kts
08-Jan-20 15:44 33.661916 -118.292577 141 2999ft 201kts
08-Jan-20 15:45 33.617890 -118.251576 141 3230ft 191kts
08-Jan-20 15:46 33.585442 -118.200077 113 4249ft 204kts
08-Jan-20 15:47 33.562647 -118.136921 114 5255ft 208kts
08-Jan-20 15:48 33.538154 -118.069805 114 5513ft 232kts
08-Jan-20 15:49 33.511599 -117.997223 114 5508ft 239kts
08-Jan-20 15:50 33.468193 -117.939191 139 5506ft 237kts
08-Jan-20 15:51 33.418457 -117.886967 139 5504ft 238kts
08-Jan-20 15:52 33.368502 -117.834555 139 5499ft 238kts
08-Jan-20 15:53 33.318526 -117.782194 139 5500ft 239kts
08-Jan-20 15:54 33.268792 -117.730148 140 5427ft 225kts
08-Jan-20 15:55 33.222198 -117.681506 139 4405ft 220kts
08-Jan-20 15:56 33.175925 -117.633254 139 3498ft 212kts
08-Jan-20 15:57 33.135067 -117.590693 139 3488ft 178kts
08-Jan-20 15:58 33.101403 -117.555652 140 3481ft 143kts
08-Jan-20 15:59 33.072437 -117.525566 140 3502ft 133kts
08-Jan-20 16:00 33.054441 -117.489762 101 3534ft 136kts
08-Jan-20 16:01 33.045518 -117.439606 101 3534ft 167kts
08-Jan-20 16:02 33.035659 -117.384416 101 2972ft 170kts
08-Jan-20 16:03 33.008921 -117.340370 134 2355ft 161kts
08-Jan-20 16:04 32.978883 -117.301980 134 1568ft 161kts
08-Jan-20 16:05 32.951466 -117.267080 153 1522ft 135kts
08-Jan-20 16:06 32.915610 -117.259547 174 1548ft 134kts
08-Jan-20 16:07 32.883106 -117.253515 174 1509ft 98kts
08-Jan-20 16:08 32.854512 -117.248400 174 1562ft 115kts
08-Jan-20 16:09 32.822933 -117.242627 157 1535ft 114kts
08-Jan-20 16:10 32.793120 -117.225642 154 1218ft 131kts
08-Jan-20 16:11 32.764223 -117.207812 146 1032ft 112kts
08-Jan-20 16:12 32.754815 -117.172817 112 1020ft 107kts
08-Jan-20 16:13 32.733915 -117.164926 203 632ft 88kts
08-Jan-20 16:14 32.733196 -117.188175 286 20ft 42kts
08-Jan-20 16:15 32.734589 -117.189221 104 20ft 9kts
08-Jan-20 16:16 32.733525 -117.184809 107 20ft 17kts
08-Jan-20 16:17 32.732660 -117.179518 40 20ft 15kts
08-Jan-20 16:18 32.733177 -117.178709 187 20ft 0kts

Navigation Log

Ident Type
Flight plan parsing failed, navigation log unavailable